Архив погоды в Владивостоке

Метеограмма Владивосток
Вторник, 25 Июня
Время местн. Темп Ветер Видим Явления Облачность нижн/средн/верх Атм. давл. Влжн Точка росы ВНГО R Сост. почвы Tg s
Напр Скр Прв ур.ст ур.м изм
13:00 +16.3° Ю 8 12 20 км - облачно 745 762 -0.2 93% +15.1° 300 м - - - -
10:00 +14.9° Ю 6 - 20 км небо без изменений {морось, туман} облачно 745 762 -0.2 99% +14.7° 300 м - - - -
07:00 +14.4° Ю 6 - 50 м туман ясно 745 762 +0.2 99% +14.2° более 2.5 км 0 Сухая (без трещин) +15° -
04:00 +14.4° Ю 5 - 0.5 км туман усиливается ясно 745 762 +0.3 99% +14.2° более 2.5 км - - - -
01:00 +14.6° Ю 5 - 50 км - облачно 745 762 +0.3 97% +14.1° 300 м - - - -
Понедельник, 24 Июня
Время местн. Темп Ветер Видим Явления Облачность нижн/средн/верх Атм. давл. Влжн Точка росы ВНГО R Сост. почвы Tg s
Напр Скр Прв ур.ст ур.м изм
22:00 +15.1° Ю 4 - более 50 км - переменная облачность 744 761 +0.5 93% +14° более 2.5 км - - - -
19:00 +16.3° Ю 4 - 50 км - преимущественно облачно 744 761 0 89% +14.5° 1 км 0 - - -
16:00 +18.1° Ю,Ю-З 4 - 10 км небо без изменений {туман} преимущественно облачно 744 761 +0.1 86% +15.7° 1 км - - - -
13:00 +16.7° Ю 5 - 10 км небо без изменений {туман} облачно с прояснениями 744 761 +0.3 98% +16.4° 1 км - - - -
10:00 +15.2° Ю 2 - 20 км туман облачно 744 760 +0.5 99% +15° 1 км - - - -
07:00 +13.9° Ю-В 2 - 50 м туман неба не видно 743 760 +0.8 99% +13.8° - 0 Влажная (без луж) +15° -
04:00 +13.5° Ю 3 - менее 100 м туман неба не видно 742 759 +0.4 99% +13.4° - - - - -
01:00 +13° Ю,Ю-В 5 - менее 100 м туман неба не видно 742 759 +0.5 99% +12.9° - - - - -
Воскресенье, 23 Июня
Время местн. Темп Ветер Видим Явления Облачность нижн/средн/верх Атм. давл. Влжн Точка росы ВНГО R Сост. почвы Tg s
Напр Скр Прв ур.ст ур.м изм
22:00 +13.5° Ю-В 7 - менее 100 м туман неба не видно 742 758 +1.3 99% +13.3° - - - - -
19:00 +17.5° Ю-В 3 - 50 км - переменная облачность 740 757 +0.2 85% +14.9° 1.5 км 0 - - -
16:00 +23.1° С 3 - 50 км - облачно с прояснениями 740 756 -0.6 62% +15.3° 1.5 км - - - -
13:00 +19.2° С 5 - 50 км - переменная облачность 741 757 -0.3 81% +15.9° 1 км - - - -
10:00 +14.2° С 4 - 20 км дождь облачно 741 758 +0.4 96% +13.6° 1 км - - - -
07:00 +13.6° штиль 0 - 20 км - облачно 741 757 -0.1 97% +13.1° 1 км 0 Влажная (без луж) - -
04:00 - +12.9° С,С-З 2 - - - - 741 757 -0.6 96% +12.3° - - - - -
01:00 +12.6° З 1 - 20 км - преимущественно облачно 741 758 -0.3 97% +12.1° 1 км - - - -
Суббота, 22 Июня
Время местн. Темп Ветер Видим Явления Облачность нижн/средн/верх Атм. давл. Влжн Точка росы ВНГО R Сост. почвы Tg s
Напр Скр Прв ур.ст ур.м изм
22:00 +12.3° Ю,Ю-З 5 - 20 км небо без изменений {туман} облачно с прояснениями 742 758 +1.1 91% +10.8° 1 км - - - -
19:00 +12° Ю 9 12 0.2 км туман неба не видно 740 757 +1.1 99% +11.8° - 0 - - -
16:00 +22.7° С 5 - 50 км - переменная облачность 739 755 -1 61% +14.9° 1.5 км - - - -
13:00 +18.9° С 4 - 50 км - переменная облачность 740 757 -0.6 81% +15.5° 1.5 км - - - -
10:00 +13.8° С 1 - 10 км туман облачно 741 758 -0.2 99% +13.7° 600 м - - - -